KMUO/MUO METAR and TAF weather

Enter ICAO airport designator
Station Type Date Time Source
KMUO METAR 2021/03/08 01:58 UTC NOAA

KMUO 080158Z AUTO 01005KT 6SM HZ FEW090 09/M03 A3002 RMK AO2 SLP178 T00901029 $


Station Type Date Time Source
KMUO Decoded METAR 2021/03/08 01:58 UTC NOAA

Mountain Home Air Force Base, ID, United States (KMUO) 43-03N 115-52W
Mar 07, 2021 - 08:58 PM EST / 2021.03.08 0158 UTC
Wind: from the N (010 degrees) at 6 MPH (5 KT):0
Visibility: 6 mile(s):0
Sky conditions: mostly clear
Weather: haze
Temperature: 48.2 F (9.0 C)
Dew Point: 26.8 F (-2.9 C)
Relative Humidity: 43%
Pressure (altimeter): 30.02 in. Hg (1016 hPa)
ob: KMUO 080158Z AUTO 01005KT 6SM HZ FEW090 09/M03 A3002 RMK AO2 SLP178 T00901029
cycle: 2

Station Type Date Time Source
KMUO TAF 2021/03/05 02:49 UTC NOAA

TAF COR KMUO 050650Z 0502/0608 12009KT 9999 FEW180 SCT230 QNH3018INS
BECMG 0503/0504 12012KT 9999 FEW200 SCT240 QNH3021INS
BECMG 0507/0508 12012G20KT 9999 FEW220 QNH3023INS
BECMG 0511/0512 12015G25KT 9999 SCT230 510009 QNH3017INS
TEMPO 0515/0517 12015G30KT 520009
BECMG 0519/0520 12012G20KT 9999 FEW240 QNH2999INS
BECMG 0601/0602 12015G25KT 9999 FEW130 510009 QNH2992INS TX17/0523Z TN01/0513Z LAST NO
AMDS AFT 0507 NEXT 0810

Example: see airport list